createdAt,value
2023-05-16T00:00:35.592Z,10.23
2023-05-16T00:02:37.851Z,10.21
2023-05-16T00:04:39.572Z,10.19
2023-05-16T00:06:41.411Z,10.17
2023-05-16T00:08:42.948Z,10.18
2023-05-16T00:10:44.472Z,10.17
2023-05-16T00:12:48.306Z,10.16
2023-05-16T00:14:51.512Z,10.12
2023-05-16T00:16:59.084Z,10.12
2023-05-16T00:19:01.047Z,10.07
2023-05-16T00:21:03.658Z,10.09
2023-05-16T00:23:05.143Z,10.06
2023-05-16T00:25:08.762Z,10.05
2023-05-16T00:27:10.487Z,10.04
2023-05-16T00:29:11.933Z,10.02
2023-05-16T00:31:13.467Z,10.03
2023-05-16T00:33:15.038Z,10.01
2023-05-16T00:35:16.576Z,10.02
2023-05-16T00:37:18.055Z,10.00
2023-05-16T00:39:19.716Z,10.00
2023-05-16T00:41:21.869Z,9.99
2023-05-16T00:43:23.443Z,9.99
2023-05-16T00:45:25.036Z,10.00
2023-05-16T00:47:26.629Z,10.00
2023-05-16T00:49:29.530Z,9.96
2023-05-16T00:51:31.335Z,9.95
2023-05-16T00:53:32.963Z,9.94
2023-05-16T00:55:34.605Z,9.90
2023-05-16T00:57:37.494Z,9.87
2023-05-16T00:59:40.169Z,9.90
2023-05-16T01:01:41.931Z,9.88
2023-05-16T01:03:47.239Z,9.88
2023-05-16T01:05:49.810Z,9.87
2023-05-16T01:07:51.343Z,9.86
2023-05-16T01:09:53.610Z,9.87
2023-05-16T01:12:21.954Z,9.88
2023-05-16T01:15:05.126Z,9.86
2023-05-16T01:17:31.261Z,9.88
2023-05-16T01:20:02.775Z,9.88
2023-05-16T01:22:29.283Z,9.88
2023-05-16T01:24:40.506Z,9.87
2023-05-16T01:26:42.215Z,9.86
2023-05-16T01:28:46.498Z,9.85
2023-05-16T01:30:48.017Z,9.87
2023-05-16T01:32:49.517Z,9.87
2023-05-16T01:34:52.111Z,9.87
2023-05-16T01:36:56.545Z,9.87
2023-05-16T01:39:19.749Z,9.88
2023-05-16T01:41:25.451Z,9.85
2023-05-16T01:43:43.278Z,9.85
2023-05-16T01:45:53.537Z,9.86
2023-05-16T01:48:07.374Z,9.87
2023-05-16T01:50:20.973Z,9.87
2023-05-16T01:52:37.937Z,9.87
2023-05-16T01:54:45.181Z,9.86
2023-05-16T01:56:55.391Z,9.85
2023-05-16T01:58:59.469Z,9.83
2023-05-16T02:01:05.693Z,9.84
2023-05-16T02:03:08.129Z,9.83
2023-05-16T02:05:09.803Z,9.80
2023-05-16T02:07:12.012Z,9.77
2023-05-16T02:09:13.486Z,9.77
2023-05-16T02:11:14.938Z,9.76
2023-05-16T02:13:16.374Z,9.74
2023-05-16T02:15:17.874Z,9.76
2023-05-16T02:17:19.308Z,9.74
2023-05-16T02:19:21.217Z,9.76
2023-05-16T02:21:22.770Z,9.76
2023-05-16T02:23:24.239Z,9.72
2023-05-16T02:25:26.303Z,9.71
2023-05-16T02:27:27.958Z,9.71
2023-05-16T02:29:29.407Z,9.68
2023-05-16T02:31:32.953Z,9.66
2023-05-16T02:33:34.712Z,9.63
2023-05-16T02:35:36.224Z,9.61
2023-05-16T02:37:38.921Z,9.58
2023-05-16T02:39:40.499Z,9.52
2023-05-16T02:41:41.965Z,9.50
2023-05-16T02:43:46.767Z,9.48
2023-05-16T02:45:48.576Z,9.40
2023-05-16T02:47:50.258Z,9.37
2023-05-16T02:49:54.576Z,9.33
2023-05-16T02:51:56.065Z,9.29
2023-05-16T02:53:59.596Z,9.24
2023-05-16T02:56:01.250Z,9.22
2023-05-16T02:58:02.720Z,9.21
2023-05-16T03:00:06.110Z,9.19
2023-05-16T03:02:08.184Z,9.17
2023-05-16T03:04:10.199Z,9.12
2023-05-16T03:06:11.780Z,9.08
2023-05-16T03:08:13.267Z,9.06
2023-05-16T03:10:14.840Z,9.02
2023-05-16T03:12:16.306Z,9.00
2023-05-16T03:14:17.814Z,8.97
2023-05-16T03:16:19.361Z,8.94
2023-05-16T03:18:21.235Z,8.91
2023-05-16T03:20:22.767Z,8.86
2023-05-16T03:22:24.221Z,8.83
2023-05-16T03:24:26.135Z,8.79
2023-05-16T03:26:27.796Z,8.77
2023-05-16T03:28:29.273Z,8.74
2023-05-16T03:30:30.833Z,8.70
2023-05-16T03:32:33.343Z,8.66
2023-05-16T03:34:34.937Z,8.61
2023-05-16T03:36:38.967Z,8.58
2023-05-16T03:38:40.820Z,8.54
2023-05-16T03:40:42.384Z,8.51
2023-05-16T03:42:43.847Z,8.49
2023-05-16T03:44:45.766Z,8.47
2023-05-16T03:46:47.245Z,8.46
2023-05-16T03:48:48.759Z,8.42
2023-05-16T03:50:51.362Z,8.41
2023-05-16T03:52:53.981Z,8.41
2023-05-16T03:54:55.475Z,8.39
2023-05-16T03:56:56.913Z,8.37
2023-05-16T03:58:58.470Z,8.39
2023-05-16T04:00:59.973Z,8.36
2023-05-16T04:03:01.469Z,8.35
2023-05-16T04:05:03.316Z,8.35
2023-05-16T04:07:04.952Z,8.36
2023-05-16T04:09:07.633Z,8.35
2023-05-16T04:11:09.110Z,8.36
2023-05-16T04:13:10.580Z,8.37
2023-05-16T04:15:12.071Z,8.37
2023-05-16T04:17:13.707Z,8.39
2023-05-16T04:19:15.489Z,8.39
2023-05-16T04:21:16.952Z,8.41
2023-05-16T04:23:18.505Z,8.43
2023-05-16T04:25:20.024Z,8.46
2023-05-16T04:27:21.786Z,8.49
2023-05-16T04:29:23.542Z,8.54
2023-05-16T04:31:28.174Z,8.49
2023-05-16T04:33:29.756Z,8.45
2023-05-16T04:35:31.255Z,8.43
2023-05-16T04:37:32.811Z,8.40
2023-05-16T04:39:35.403Z,8.36
2023-05-16T04:41:36.993Z,8.34
2023-05-16T04:43:38.500Z,8.34
2023-05-16T04:45:40.713Z,8.36
2023-05-16T04:47:42.399Z,8.36
2023-05-16T04:49:43.937Z,8.40
2023-05-16T04:51:45.420Z,8.44
2023-05-16T04:53:47.072Z,8.44
2023-05-16T04:55:48.640Z,8.46
2023-05-16T04:57:50.123Z,8.47
2023-05-16T04:59:51.585Z,8.49
2023-05-16T05:01:53.198Z,8.55
2023-05-16T05:03:54.792Z,8.57
2023-05-16T05:05:56.302Z,8.66
2023-05-16T05:07:58.798Z,8.76
2023-05-16T05:10:00.336Z,8.89
2023-05-16T05:12:01.820Z,9.01
2023-05-16T05:14:03.695Z,9.04
2023-05-16T05:16:06.066Z,9.07
2023-05-16T05:18:07.827Z,9.11
2023-05-16T05:20:10.450Z,9.13
2023-05-16T05:22:12.189Z,9.18
2023-05-16T05:24:13.672Z,9.20
2023-05-16T05:26:15.400Z,9.16
2023-05-16T05:28:16.881Z,9.17
2023-05-16T05:30:18.385Z,9.15
2023-05-16T05:32:19.891Z,9.15
2023-05-16T05:34:21.460Z,9.21
2023-05-16T05:36:22.949Z,9.25
2023-05-16T05:38:24.479Z,9.28
2023-05-16T05:40:26.238Z,9.39
2023-05-16T05:42:27.708Z,9.50
2023-05-16T05:44:29.543Z,9.58
2023-05-16T05:46:31.421Z,9.66
2023-05-16T05:48:33.075Z,9.70
2023-05-16T05:50:34.666Z,9.77
2023-05-16T05:52:36.177Z,9.80
2023-05-16T05:54:37.691Z,9.73
2023-05-16T05:56:39.150Z,9.65
2023-05-16T05:58:42.009Z,9.60
2023-05-16T06:00:43.521Z,9.57
2023-05-16T06:02:45.213Z,9.56
2023-05-16T06:04:46.837Z,9.63
2023-05-16T06:06:48.497Z,9.74
2023-05-16T06:08:49.970Z,9.87
2023-05-16T06:10:51.511Z,9.93
2023-05-16T06:12:52.960Z,9.94
2023-05-16T06:14:54.401Z,9.99
2023-05-16T06:16:56.189Z,10.04
2023-05-16T06:18:57.754Z,10.05
2023-05-16T06:20:59.291Z,10.08
2023-05-16T06:23:01.545Z,10.15
2023-05-16T06:25:03.506Z,10.26
2023-05-16T06:27:05.118Z,10.36
2023-05-16T06:29:06.660Z,10.45
2023-05-16T06:31:08.190Z,10.52
2023-05-16T06:33:09.687Z,10.56
2023-05-16T06:35:11.261Z,10.54
2023-05-16T06:37:12.732Z,10.52
2023-05-16T06:39:14.265Z,10.44
2023-05-16T06:41:15.754Z,10.42
2023-05-16T06:43:17.943Z,10.45
2023-05-16T06:45:19.427Z,10.40
2023-05-16T06:47:21.594Z,10.35
2023-05-16T06:49:23.884Z,10.41
2023-05-16T06:51:25.730Z,10.41
2023-05-16T06:53:28.734Z,10.45
2023-05-16T06:55:30.550Z,10.43
2023-05-16T06:57:32.163Z,10.45
2023-05-16T06:59:34.320Z,10.48
2023-05-16T07:01:35.865Z,10.55
2023-05-16T07:03:37.469Z,10.69
2023-05-16T07:05:39.168Z,10.83
2023-05-16T07:07:40.724Z,10.95
2023-05-16T07:09:42.204Z,10.97
2023-05-16T07:11:43.747Z,10.93
2023-05-16T07:13:45.418Z,10.97
2023-05-16T07:15:46.953Z,10.94
2023-05-16T07:17:48.613Z,10.97
2023-05-16T07:19:50.583Z,11.04
2023-05-16T07:21:52.117Z,11.11
2023-05-16T07:23:53.680Z,11.06
2023-05-16T07:25:55.245Z,11.16
2023-05-16T07:27:56.780Z,11.40
2023-05-16T07:29:58.393Z,11.55
2023-05-16T07:31:59.917Z,11.58
2023-05-16T07:34:01.434Z,11.67
2023-05-16T07:36:15.346Z,11.63
2023-05-16T07:38:18.158Z,11.51
2023-05-16T07:40:21.261Z,11.47
2023-05-16T07:42:22.817Z,11.43
2023-05-16T07:44:24.401Z,11.40
2023-05-16T07:46:26.075Z,11.37
2023-05-16T07:48:27.950Z,11.37
2023-05-16T07:50:29.548Z,11.33
2023-05-16T07:52:31.061Z,11.33
2023-05-16T07:54:33.372Z,11.34
2023-05-16T07:56:35.027Z,11.30
2023-05-16T07:58:36.714Z,11.38
2023-05-16T08:00:38.208Z,11.47
2023-05-16T08:02:39.973Z,11.50
2023-05-16T08:04:41.588Z,11.64
2023-05-16T08:06:43.153Z,11.69
2023-05-16T08:08:44.665Z,11.78
2023-05-16T08:10:46.407Z,11.82
2023-05-16T08:12:48.380Z,11.89
2023-05-16T08:14:50.055Z,11.95
2023-05-16T08:16:51.568Z,12.14
2023-05-16T08:18:53.395Z,12.26
2023-05-16T08:20:54.913Z,12.39
2023-05-16T08:22:56.484Z,12.58
2023-05-16T08:24:57.995Z,12.64
2023-05-16T08:26:59.499Z,12.67
2023-05-16T08:29:01.033Z,12.53
2023-05-16T08:31:02.562Z,12.39
2023-05-16T08:33:05.369Z,12.36
2023-05-16T08:35:07.673Z,12.35
2023-05-16T08:37:10.303Z,12.52
2023-05-16T08:39:12.413Z,12.56
2023-05-16T08:41:13.951Z,12.61
2023-05-16T08:43:15.506Z,12.69
2023-05-16T08:45:17.238Z,12.68
2023-05-16T08:47:21.690Z,12.53
2023-05-16T08:49:26.920Z,12.28
2023-05-16T08:51:32.493Z,12.12
2023-05-16T08:53:45.023Z,11.89
2023-05-16T08:55:48.584Z,11.79
2023-05-16T08:57:51.946Z,11.73
2023-05-16T08:59:55.608Z,11.70
2023-05-16T09:01:58.387Z,11.74
2023-05-16T09:04:01.253Z,11.85
2023-05-16T09:06:06.114Z,12.03
2023-05-16T09:08:09.659Z,12.22
2023-05-16T09:10:12.195Z,12.32
2023-05-16T09:12:13.719Z,12.54
2023-05-16T09:14:15.365Z,12.79
2023-05-16T09:16:21.165Z,12.81
2023-05-16T09:18:22.727Z,12.78
2023-05-16T09:20:24.259Z,12.66
2023-05-16T09:22:25.881Z,12.53
2023-05-16T09:24:27.404Z,12.43
2023-05-16T09:26:29.028Z,12.39
2023-05-16T09:28:31.803Z,12.47
2023-05-16T09:30:34.992Z,12.59
2023-05-16T09:32:36.823Z,12.79
2023-05-16T09:34:46.101Z,12.89
2023-05-16T09:36:54.815Z,12.83
2023-05-16T09:38:56.253Z,12.64
2023-05-16T09:40:57.805Z,12.49
2023-05-16T09:43:07.767Z,12.44
2023-05-16T09:45:13.309Z,12.60
2023-05-16T09:47:17.203Z,12.80
2023-05-16T09:49:19.244Z,12.84
2023-05-16T09:51:23.367Z,12.97
2023-05-16T09:53:29.144Z,13.14
2023-05-16T09:55:31.884Z,13.24
2023-05-16T09:57:33.377Z,13.22
2023-05-16T09:59:41.047Z,13.25
2023-05-16T10:01:42.845Z,13.34
2023-05-16T10:03:44.555Z,13.55
2023-05-16T10:05:46.735Z,13.61
2023-05-16T10:07:49.527Z,13.46
2023-05-16T10:09:59.007Z,13.28
2023-05-16T10:12:08.434Z,13.23
2023-05-16T10:14:11.744Z,13.11
2023-05-16T10:16:14.408Z,12.86
2023-05-16T10:18:18.429Z,12.69
2023-05-16T10:20:21.325Z,12.06
2023-05-16T10:22:24.608Z,11.21
2023-05-16T10:24:43.833Z,10.39
2023-05-16T10:26:45.378Z,9.87
2023-05-16T10:28:47.665Z,9.61
2023-05-16T10:30:50.601Z,9.54
2023-05-16T10:32:53.117Z,9.64
2023-05-16T10:34:56.231Z,9.84
2023-05-16T10:36:59.207Z,10.02
2023-05-16T10:39:01.454Z,10.35
2023-05-16T10:41:03.541Z,10.87
2023-05-16T10:43:07.361Z,11.33
2023-05-16T10:45:19.978Z,11.79
2023-05-16T10:47:21.650Z,12.26
2023-05-16T10:49:24.841Z,12.82
2023-05-16T10:51:37.284Z,13.44
2023-05-16T10:53:38.813Z,13.54
2023-05-16T10:55:44.490Z,13.29
2023-05-16T10:57:46.129Z,12.62
2023-05-16T10:59:50.014Z,12.02
2023-05-16T11:01:56.652Z,11.50
2023-05-16T11:04:04.453Z,11.09
2023-05-16T11:06:06.450Z,10.85
2023-05-16T11:08:09.075Z,10.71
2023-05-16T11:10:15.561Z,10.58
2023-05-16T11:12:20.782Z,10.47
2023-05-16T11:14:23.328Z,10.41
2023-05-16T11:16:28.609Z,10.42
2023-05-16T11:18:33.112Z,10.45
2023-05-16T11:20:37.961Z,10.64
2023-05-16T11:22:41.340Z,11.39
2023-05-16T11:25:03.310Z,12.09
2023-05-16T11:27:06.444Z,12.75
2023-05-16T11:29:08.524Z,13.24
2023-05-16T11:31:10.192Z,13.55
2023-05-16T11:33:13.406Z,13.93
2023-05-16T11:35:17.517Z,14.18
2023-05-16T11:37:20.200Z,14.59
2023-05-16T11:39:24.993Z,15.09
2023-05-16T11:41:26.833Z,15.06
2023-05-16T11:43:28.319Z,14.53
2023-05-16T11:45:30.117Z,13.87
2023-05-16T11:47:32.127Z,13.22
2023-05-16T11:49:35.571Z,12.83
2023-05-16T11:51:43.579Z,12.64
2023-05-16T11:53:45.111Z,12.57
2023-05-16T11:55:54.789Z,12.55
2023-05-16T11:57:58.698Z,12.44
2023-05-16T12:00:15.014Z,11.94
2023-05-16T12:02:16.755Z,11.28
2023-05-16T12:04:20.255Z,10.85
2023-05-16T12:06:21.927Z,10.43
2023-05-16T12:08:24.676Z,10.28
2023-05-16T12:10:26.896Z,10.10
2023-05-16T12:12:28.968Z,10.02
2023-05-16T12:14:30.647Z,10.18
2023-05-16T12:16:33.044Z,10.52
2023-05-16T12:18:34.835Z,11.00
2023-05-16T12:20:36.485Z,11.48
2023-05-16T12:22:41.648Z,11.67
2023-05-16T12:24:43.161Z,11.63
2023-05-16T12:26:44.776Z,11.48
2023-05-16T12:28:46.561Z,11.36
2023-05-16T12:30:48.273Z,11.47
2023-05-16T12:32:55.687Z,11.77
2023-05-16T12:34:57.301Z,11.98
2023-05-16T12:36:59.684Z,12.01
2023-05-16T12:39:03.837Z,11.92
2023-05-16T12:41:05.332Z,11.86
2023-05-16T12:43:17.640Z,11.92
2023-05-16T12:45:19.390Z,12.07
2023-05-16T12:47:21.506Z,12.12
2023-05-16T12:49:23.290Z,12.16
2023-05-16T12:51:24.814Z,12.19
2023-05-16T12:53:26.758Z,12.17
2023-05-16T12:55:28.240Z,12.14
2023-05-16T12:57:29.737Z,12.22
2023-05-16T12:59:31.450Z,12.33
2023-05-16T13:01:34.842Z,12.36
2023-05-16T13:03:36.689Z,12.43
2023-05-16T13:05:38.538Z,12.54
2023-05-16T13:07:40.880Z,12.59
2023-05-16T13:09:42.419Z,12.56
2023-05-16T13:11:43.892Z,12.50
2023-05-16T13:13:45.554Z,12.53
2023-05-16T13:15:47.900Z,12.54
2023-05-16T13:17:49.510Z,12.51
2023-05-16T13:19:51.983Z,12.40
2023-05-16T13:21:53.463Z,12.25
2023-05-16T13:23:54.982Z,12.11
2023-05-16T13:25:56.967Z,11.91
2023-05-16T13:27:58.495Z,11.75
2023-05-16T13:30:00.394Z,11.56
2023-05-16T13:32:02.018Z,11.43
2023-05-16T13:34:04.228Z,11.40
2023-05-16T13:36:07.246Z,11.45
2023-05-16T13:38:10.791Z,11.55
2023-05-16T13:40:12.404Z,11.62
2023-05-16T13:42:13.927Z,11.72
2023-05-16T13:44:16.172Z,11.82
2023-05-16T13:46:17.945Z,11.88
2023-05-16T13:48:19.642Z,11.94
2023-05-16T13:50:21.541Z,12.00
2023-05-16T13:52:23.019Z,12.09
2023-05-16T13:54:24.558Z,12.18
2023-05-16T13:56:26.072Z,12.25
2023-05-16T13:58:27.629Z,12.26
2023-05-16T14:00:44.446Z,12.22
2023-05-16T14:02:47.670Z,12.22
2023-05-16T14:04:50.078Z,12.26
2023-05-16T14:06:51.940Z,12.31
2023-05-16T14:08:53.428Z,12.29
2023-05-16T14:10:55.098Z,12.30
2023-05-16T14:12:56.584Z,12.35
2023-05-16T14:14:59.382Z,12.39
2023-05-16T14:17:01.329Z,12.40
2023-05-16T14:19:03.094Z,12.41
2023-05-16T14:21:05.010Z,12.35
2023-05-16T14:23:06.598Z,12.29
2023-05-16T14:25:08.554Z,12.23
2023-05-16T14:27:10.167Z,12.18
2023-05-16T14:29:12.304Z,12.17
2023-05-16T14:31:13.874Z,12.19
2023-05-16T14:33:15.508Z,12.21
2023-05-16T14:35:17.227Z,12.24
2023-05-16T14:37:18.826Z,12.32
2023-05-16T14:39:20.391Z,12.46
2023-05-16T14:41:22.666Z,12.62
2023-05-16T14:43:24.169Z,12.71
2023-05-16T14:45:25.964Z,12.68
2023-05-16T14:47:28.974Z,12.59
2023-05-16T14:49:30.647Z,12.50
2023-05-16T14:51:32.353Z,12.40
2023-05-16T14:53:34.008Z,12.32
2023-05-16T14:55:35.894Z,12.32
2023-05-16T14:57:37.443Z,12.39
2023-05-16T14:59:38.973Z,12.36
2023-05-16T15:01:41.296Z,12.37
2023-05-16T15:03:54.528Z,12.31
2023-05-16T15:05:57.885Z,12.23
2023-05-16T15:08:00.265Z,12.21
2023-05-16T15:10:02.016Z,12.27
2023-05-16T15:12:03.804Z,12.42
2023-05-16T15:14:06.596Z,12.55
2023-05-16T15:16:08.253Z,12.63
2023-05-16T15:18:11.238Z,12.68
2023-05-16T15:20:13.198Z,12.76
2023-05-16T15:22:15.288Z,12.76
2023-05-16T15:24:17.971Z,12.72
2023-05-16T15:26:19.694Z,12.69
2023-05-16T15:28:22.715Z,12.63
2023-05-16T15:30:24.501Z,12.55
2023-05-16T15:32:26.293Z,12.50
2023-05-16T15:34:28.614Z,12.43
2023-05-16T15:36:30.187Z,12.45
2023-05-16T15:38:31.970Z,12.48
2023-05-16T15:40:33.476Z,12.43
2023-05-16T15:42:35.673Z,12.37
2023-05-16T15:44:37.378Z,12.35
2023-05-16T15:46:39.034Z,12.36
2023-05-16T15:48:42.858Z,12.35
2023-05-16T15:50:44.367Z,12.32
2023-05-16T15:52:45.867Z,12.23
2023-05-16T15:54:47.339Z,12.18
2023-05-16T15:56:48.966Z,12.15
2023-05-16T15:58:50.771Z,12.10
2023-05-16T16:00:53.778Z,12.04
2023-05-16T16:02:55.547Z,12.05
2023-05-16T16:04:57.119Z,12.11
2023-05-16T16:06:59.032Z,12.07
2023-05-16T16:09:00.938Z,11.98
2023-05-16T16:11:02.799Z,11.89
2023-05-16T16:13:04.707Z,11.83
2023-05-16T16:15:06.909Z,11.76
2023-05-16T16:17:08.737Z,11.71
2023-05-16T16:19:10.353Z,11.68
2023-05-16T16:21:12.540Z,11.70
2023-05-16T16:23:14.164Z,11.68
2023-05-16T16:25:16.171Z,11.67
2023-05-16T16:27:17.697Z,11.68
2023-05-16T16:29:19.192Z,11.67
2023-05-16T16:31:20.799Z,11.60
2023-05-16T16:33:22.359Z,11.54
2023-05-16T16:35:26.071Z,11.53
2023-05-16T16:37:27.848Z,11.49
2023-05-16T16:39:32.179Z,11.47
2023-05-16T16:41:34.598Z,11.37
2023-05-16T16:43:40.055Z,11.43
2023-05-16T16:45:41.587Z,11.48
2023-05-16T16:47:43.261Z,11.59
2023-05-16T16:49:45.526Z,11.73
2023-05-16T16:51:47.671Z,11.87
2023-05-16T16:53:49.195Z,11.93
2023-05-16T16:55:50.803Z,11.97
2023-05-16T16:57:52.314Z,11.81
2023-05-16T16:59:53.925Z,11.63
2023-05-16T17:01:55.520Z,11.54
2023-05-16T17:03:57.433Z,11.52
2023-05-16T17:05:58.915Z,11.50
2023-05-16T17:08:00.577Z,11.48
2023-05-16T17:10:04.701Z,11.44
2023-05-16T17:12:08.605Z,11.43
2023-05-16T17:14:14.440Z,11.42
2023-05-16T17:16:16.401Z,11.38
2023-05-16T17:18:18.050Z,11.36
2023-05-16T17:20:19.745Z,11.35
2023-05-16T17:22:22.185Z,11.35
2023-05-16T17:24:23.723Z,11.38
2023-05-16T17:26:25.304Z,11.39
2023-05-16T17:28:26.888Z,11.40
2023-05-16T17:30:28.377Z,11.37
2023-05-16T17:32:29.910Z,11.37
2023-05-16T17:34:31.810Z,11.37
2023-05-16T17:36:33.367Z,11.34
2023-05-16T17:38:34.860Z,11.31
2023-05-16T17:40:36.417Z,11.30
2023-05-16T17:42:38.437Z,11.28
2023-05-16T17:44:41.105Z,11.25
2023-05-16T17:46:43.137Z,11.24
2023-05-16T17:48:44.621Z,11.22
2023-05-16T17:50:46.199Z,11.20
2023-05-16T17:52:47.744Z,11.20
2023-05-16T17:54:49.246Z,11.22
2023-05-16T17:56:51.189Z,11.22
2023-05-16T17:58:53.432Z,11.22
2023-05-16T18:00:55.224Z,11.24
2023-05-16T18:02:56.787Z,11.28
2023-05-16T18:04:59.497Z,11.31
2023-05-16T18:07:01.350Z,11.36
2023-05-16T18:09:06.470Z,11.36
2023-05-16T18:11:08.019Z,11.35
2023-05-16T18:13:09.617Z,11.34
2023-05-16T18:15:11.989Z,11.33
2023-05-16T18:17:13.551Z,11.32
2023-05-16T18:19:15.149Z,11.32
2023-05-16T18:21:16.899Z,11.32
2023-05-16T18:23:18.396Z,11.31
2023-05-16T18:25:20.024Z,11.30
2023-05-16T18:27:21.558Z,11.31
2023-05-16T18:29:23.513Z,11.31
2023-05-16T18:31:25.117Z,11.30
2023-05-16T18:33:26.690Z,11.29
2023-05-16T18:35:28.692Z,11.30
2023-05-16T18:37:31.053Z,11.29
2023-05-16T18:39:33.059Z,11.27
2023-05-16T18:41:34.654Z,11.27
2023-05-16T18:43:36.752Z,11.23
2023-05-16T18:45:38.261Z,11.22
2023-05-16T18:47:39.878Z,11.18
2023-05-16T18:49:41.665Z,11.17
2023-05-16T18:51:44.169Z,11.16
2023-05-16T18:53:45.713Z,11.13
2023-05-16T18:55:48.595Z,11.12
2023-05-16T18:57:50.120Z,11.09
2023-05-16T18:59:53.645Z,11.09
2023-05-16T19:01:55.649Z,11.07
2023-05-16T19:03:57.605Z,11.06
2023-05-16T19:05:59.342Z,11.04
2023-05-16T19:08:00.938Z,11.02
2023-05-16T19:10:03.783Z,11.00
2023-05-16T19:12:05.996Z,10.98
2023-05-16T19:14:08.282Z,10.97
2023-05-16T19:16:10.207Z,10.95
2023-05-16T19:18:11.958Z,10.94
2023-05-16T19:20:13.580Z,10.91
2023-05-16T19:22:15.149Z,10.92
2023-05-16T19:24:16.989Z,10.90
2023-05-16T19:26:18.790Z,10.86
2023-05-16T19:28:20.528Z,10.87
2023-05-16T19:30:23.309Z,10.83
2023-05-16T19:32:24.944Z,10.81
2023-05-16T19:34:26.732Z,10.77
2023-05-16T19:36:28.433Z,10.75
2023-05-16T19:38:29.929Z,10.74
2023-05-16T19:40:33.900Z,10.74
2023-05-16T19:42:35.611Z,10.72
2023-05-16T19:44:37.112Z,10.71
2023-05-16T19:46:39.318Z,10.71
2023-05-16T19:48:41.044Z,10.70
2023-05-16T19:50:42.651Z,10.69
2023-05-16T19:52:44.225Z,10.68
2023-05-16T19:54:45.771Z,10.66
2023-05-16T19:56:47.261Z,10.65
2023-05-16T19:58:48.896Z,10.64
2023-05-16T20:00:50.875Z,10.64
2023-05-16T20:02:52.660Z,10.64
2023-05-16T20:04:54.398Z,10.62
2023-05-16T20:06:55.921Z,10.63
2023-05-16T20:08:57.442Z,10.62
2023-05-16T20:10:59.039Z,10.60
2023-05-16T20:13:00.702Z,10.59
2023-05-16T20:15:02.567Z,10.57
2023-05-16T20:17:04.227Z,10.55
2023-05-16T20:19:06.990Z,10.54
2023-05-16T20:21:08.564Z,10.52
2023-05-16T20:23:10.116Z,10.50
2023-05-16T20:25:12.036Z,10.49
2023-05-16T20:27:13.606Z,10.50
2023-05-16T20:29:15.114Z,10.48
2023-05-16T20:31:16.600Z,10.49
2023-05-16T20:33:18.196Z,10.48
2023-05-16T20:35:19.860Z,10.44
2023-05-16T20:37:26.371Z,10.43
2023-05-16T20:39:28.893Z,10.41
2023-05-16T20:41:30.444Z,10.39
2023-05-16T20:43:31.934Z,10.39
2023-05-16T20:45:33.440Z,10.38
2023-05-16T20:47:34.970Z,10.37
2023-05-16T20:49:37.788Z,10.38
2023-05-16T20:51:39.355Z,10.39
2023-05-16T20:53:40.833Z,10.39
2023-05-16T20:55:42.349Z,10.39
2023-05-16T20:57:44.006Z,10.37
2023-05-16T20:59:45.631Z,10.32
2023-05-16T21:01:47.301Z,10.33
2023-05-16T21:03:48.928Z,10.31
2023-05-16T21:05:50.500Z,10.29
2023-05-16T21:07:52.024Z,10.27
2023-05-16T21:09:53.536Z,10.26
2023-05-16T21:11:55.137Z,10.26
2023-05-16T21:13:56.625Z,10.27
2023-05-16T21:15:58.151Z,10.25
2023-05-16T21:17:59.737Z,10.26
2023-05-16T21:20:01.284Z,10.26
2023-05-16T21:22:03.995Z,10.25
2023-05-16T21:24:05.845Z,10.26
2023-05-16T21:26:07.461Z,10.25
2023-05-16T21:28:09.117Z,10.25
2023-05-16T21:30:11.297Z,10.25
2023-05-16T21:32:16.225Z,10.25
2023-05-16T21:34:17.915Z,10.25
2023-05-16T21:36:22.335Z,10.27
2023-05-16T21:38:23.890Z,10.27
2023-05-16T21:40:25.704Z,10.27
2023-05-16T21:42:27.490Z,10.30
2023-05-16T21:44:29.418Z,10.28
2023-05-16T21:46:30.914Z,10.30
2023-05-16T21:48:32.555Z,10.29
2023-05-16T21:50:34.196Z,10.28
2023-05-16T21:52:36.104Z,10.27
2023-05-16T21:54:37.613Z,10.27
2023-05-16T21:56:39.145Z,10.27
2023-05-16T21:58:42.363Z,10.27
2023-05-16T22:00:43.846Z,10.27
2023-05-16T22:02:45.574Z,10.27
2023-05-16T22:04:47.166Z,10.26
2023-05-16T22:06:48.676Z,10.26
2023-05-16T22:08:50.969Z,10.26
2023-05-16T22:10:52.838Z,10.23
2023-05-16T22:12:54.335Z,10.23
2023-05-16T22:14:55.999Z,10.20
2023-05-16T22:16:57.494Z,10.19
2023-05-16T22:18:59.066Z,10.17
2023-05-16T22:21:01.170Z,10.15
2023-05-16T22:23:02.961Z,10.12
2023-05-16T22:25:05.152Z,10.11
2023-05-16T22:27:06.851Z,10.09
2023-05-16T22:29:08.353Z,10.07
2023-05-16T22:31:09.877Z,10.07
2023-05-16T22:33:11.451Z,10.06
2023-05-16T22:35:13.730Z,10.05
2023-05-16T22:37:15.383Z,10.04
2023-05-16T22:39:16.910Z,10.03
2023-05-16T22:41:18.493Z,10.05
2023-05-16T22:43:20.206Z,10.04
2023-05-16T22:45:21.846Z,10.05
2023-05-16T22:47:23.377Z,10.05
2023-05-16T22:49:24.956Z,10.05
2023-05-16T22:51:26.547Z,10.05
2023-05-16T22:53:28.507Z,10.04
2023-05-16T22:55:30.301Z,10.04
2023-05-16T22:57:32.060Z,10.03
2023-05-16T22:59:34.171Z,10.03
2023-05-16T23:01:35.827Z,10.04
2023-05-16T23:03:37.472Z,10.04
2023-05-16T23:05:39.006Z,10.04
2023-05-16T23:07:41.340Z,10.05
2023-05-16T23:09:43.221Z,10.05
2023-05-16T23:11:44.717Z,10.04
2023-05-16T23:13:46.476Z,10.02
2023-05-16T23:15:48.015Z,10.02
2023-05-16T23:17:49.603Z,10.01
2023-05-16T23:19:51.560Z,9.99
2023-05-16T23:21:53.115Z,9.97
2023-05-16T23:23:54.584Z,9.92
2023-05-16T23:25:56.098Z,9.89
2023-05-16T23:27:57.919Z,9.87
2023-05-16T23:29:59.555Z,9.84
2023-05-16T23:32:01.132Z,9.80
2023-05-16T23:34:02.740Z,9.76
2023-05-16T23:36:04.711Z,9.75
2023-05-16T23:38:06.185Z,9.74
2023-05-16T23:40:08.506Z,9.72
2023-05-16T23:42:10.068Z,9.69
2023-05-16T23:44:11.575Z,9.66
2023-05-16T23:46:13.068Z,9.65
2023-05-16T23:48:14.795Z,9.64
2023-05-16T23:50:17.415Z,9.62
2023-05-16T23:52:19.136Z,9.63
2023-05-16T23:54:20.793Z,9.62
2023-05-16T23:56:22.489Z,9.62
2023-05-16T23:58:24.018Z,9.63
